Time;durP1;ratioP1;P1;durP2;ratioP2;P2;SDS_P1;SDS_P2;PMS_P1;PMS_P2;Temp;Humidity;BMP_temperature;BMP_pressure;BME280_temperature;BME280_humidity;BME280_pressure;Samples;Min_cycle;Max_cycle;Signal;HPM_P1;HPM_P2
2024/03/30 00:00:51;;;;;;;19.80;15.00;;;;;;;;;;5033940;28;20821;-81
2024/03/30 00:03:17;;;;;;;15.73;13.32;;;10.10;99.90;;;;;;5034467;28;20457;-78
2024/03/30 00:05:43;;;;;;;17.88;13.48;;;9.10;99.90;;;;;;5034413;28;20407;-81
2024/03/30 00:08:09;;;;;;;18.95;14.38;;;9.60;99.90;;;;;;5033855;28;20966;-82
2024/03/30 00:10:39;;;;;;;17.67;13.38;;;9.10;99.90;;;;;;5033518;28;20379;-82
2024/03/30 00:13:06;;;;;;;20.30;14.10;;;;;;;;;;5015818;28;20398;-81
2024/03/30 00:15:32;;;;;;;19.90;13.60;;;10.00;99.90;;;;;;5015580;28;20474;-82
2024/03/30 00:17:58;;;;;;;17.23;13.73;;;9.90;99.90;;;;;;5033014;28;20410;-82
2024/03/30 00:20:24;;;;;;;17.92;13.20;;;9.80;99.90;;;;;;5032346;28;20395;-80
2024/03/30 00:22:51;;;;;;;17.40;13.30;;;9.20;99.90;;;;;;5033559;28;20914;-80
2024/03/30 00:25:18;;;;;;;15.40;12.95;;;9.30;99.90;;;;;;5032632;28;20399;-82
2024/03/30 00:27:44;;;;;;;16.30;11.80;;;9.90;99.90;;;;;;5033455;28;20391;-80
2024/03/30 00:30:10;;;;;;;15.50;11.30;;;;;;;;;;5033407;28;20390;-81
2024/03/30 00:32:35;;;;;;;18.13;13.45;;;9.90;99.90;;;;;;5030856;28;20389;-81
2024/03/30 00:35:01;;;;;;;14.50;11.67;;;9.50;99.90;;;;;;5033014;28;20466;-81
2024/03/30 00:37:27;;;;;;;13.48;11.40;;;9.70;99.90;;;;;;5033011;28;20387;-80
2024/03/30 00:39:52;;;;;;;15.32;11.98;;;9.20;99.90;;;;;;5034318;28;20424;-79
2024/03/30 00:42:18;;;;;;;13.30;11.80;;;9.20;99.90;;;;;;5027184;28;20407;-80
2024/03/30 00:44:44;;;;;;;14.00;11.70;;;;;;;;;;5042954;28;20395;-79
2024/03/30 00:47:09;;;;;;;13.57;11.13;;;9.10;99.90;;;;;;5040597;28;20394;-79
2024/03/30 00:49:35;;;;;;;14.45;11.35;;;;;;;;;;5026951;28;20383;-80
2024/03/30 00:52:01;;;;;;;14.18;10.70;;;9.20;99.90;;;;;;5022067;28;20635;-80
2024/03/30 00:54:26;;;;;;;16.45;11.80;;;9.80;99.90;;;;;;5034975;28;20391;-81
2024/03/30 00:56:52;;;;;;;15.07;11.67;;;9.70;99.90;;;;;;5033504;28;20410;-80
2024/03/30 00:59:17;;;;;;;14.83;11.40;;;9.30;99.90;;;;;;5015632;28;20425;-82
2024/03/30 01:01:43;;;;;;;12.55;10.32;;;9.40;99.90;;;;;;5033646;28;20390;-81
2024/03/30 01:04:08;;;;;;;15.87;10.53;;;9.60;99.90;;;;;;5014399;28;20965;-81
2024/03/30 01:06:34;;;;;;;12.50;10.00;;;9.40;99.90;;;;;;5032702;28;20441;-81
2024/03/30 01:08:59;;;;;;;14.40;11.47;;;9.80;99.90;;;;;;5015046;28;20464;-82
2024/03/30 01:11:25;;;;;;;14.52;11.18;;;9.00;99.90;;;;;;5032830;28;20787;-80
2024/03/30 01:13:51;;;;;;;15.95;11.38;;;9.60;99.90;;;;;;5021543;28;20474;-80
2024/03/30 01:16:17;;;;;;;15.63;12.77;;;;;;;;;;5039990;28;20387;-79
2024/03/30 01:18:43;;;;;;;14.15;12.25;;;9.70;99.90;;;;;;5040804;28;20383;-79
2024/03/30 01:21:09;;;;;;;14.07;11.50;;;9.20;99.90;;;;;;5040224;28;20403;-79
2024/03/30 01:23:35;;;;;;;17.90;10.97;;;9.30;99.90;;;;;;5033624;28;20482;-79
2024/03/30 01:26:02;;;;;;;13.65;9.93;;;9.60;99.90;;;;;;5031987;28;20457;-80
2024/03/30 01:28:28;;;;;;;14.10;10.30;;;9.30;99.90;;;;;;5014923;28;20414;-81
2024/03/30 01:30:53;;;;;;;17.50;11.70;;;9.40;99.90;;;;;;5032622;28;20387;-81
2024/03/30 01:33:19;;;;;;;21.10;12.03;;;;;;;;;;5014484;28;20449;-81
2024/03/30 01:35:45;;;;;;;28.00;14.00;;;9.80;99.90;;;;;;5014291;28;20821;-80
2024/03/30 01:38:10;;;;;;;27.90;14.45;;;9.40;99.90;;;;;;5032737;28;20462;-79
2024/03/30 01:40:38;;;;;;;23.07;15.23;;;9.00;99.90;;;;;;5031873;28;20466;-81
2024/03/30 01:43:04;;;;;;;30.45;15.77;;;9.70;99.90;;;;;;5031912;28;20406;-81
2024/03/30 01:45:50;;;;;;;24.52;14.65;;;9.60;99.90;;;;;;5014407;28;20402;-81
2024/03/30 01:48:17;;;;;;;23.42;15.55;;;9.70;99.90;;;;;;5031869;28;20419;-81
2024/03/30 01:50:43;;;;;;;25.17;15.82;;;9.90;99.90;;;;;;5031381;28;20383;-81
2024/03/30 01:53:12;;;;;;;21.20;14.07;;;9.50;99.90;;;;;;5015007;28;20490;-81
2024/03/30 01:55:38;;;;;;;25.80;14.85;;;;;;;;;;5014083;28;20598;-81
2024/03/30 01:58:05;;;;;;;23.77;14.85;;;9.80;99.90;;;;;;5014781;28;20391;-81
2024/03/30 02:00:31;;;;;;;30.23;15.45;;;9.70;99.90;;;;;;5032445;28;20458;-81
2024/03/30 02:02:58;;;;;;;36.30;15.32;;;9.00;99.90;;;;;;5032201;28;20473;-81
2024/03/30 02:05:24;;;;;;;29.38;15.52;;;;;;;;;;5031706;28;20447;-81
2024/03/30 02:07:50;;;;;;;26.92;15.20;;;9.70;99.90;;;;;;5014970;28;20383;-81
2024/03/30 02:10:16;;;;;;;32.67;15.13;;;9.70;99.90;;;;;;5031796;28;20449;-80
2024/03/30 02:12:42;;;;;;;26.85;16.30;;;9.80;99.90;;;;;;5031896;28;20387;-80
2024/03/30 02:15:08;;;;;;;34.45;15.93;;;9.60;99.90;;;;;;5034022;28;20383;-80
2024/03/30 02:17:35;;;;;;;32.75;17.23;;;9.10;99.90;;;;;;5017388;28;20743;-81
2024/03/30 02:20:01;;;;;;;33.55;16.90;;;9.30;99.90;;;;;;5035447;28;20383;-80
2024/03/30 02:22:27;;;;;;;39.57;17.53;;;9.50;99.90;;;;;;5035081;28;21113;-81
2024/03/30 02:24:53;;;;;;;35.40;18.08;;;;;;;;;;5034490;28;20444;-81
2024/03/30 02:27:18;;;;;;;40.13;17.13;;;9.20;99.90;;;;;;5035527;28;20383;-80
2024/03/30 02:29:49;;;;;;;50.72;18.65;;;9.30;99.90;;;;;;5017983;28;20390;-79
2024/03/30 02:32:15;;;;;;;33.67;16.70;;;9.80;99.90;;;;;;5034697;28;20406;-81
2024/03/30 02:34:41;;;;;;;36.80;17.58;;;9.40;99.90;;;;;;5017325;28;20421;-81
2024/03/30 02:37:08;;;;;;;53.42;18.27;;;;;;;;;;5034645;28;20393;-81
2024/03/30 02:39:33;;;;;;;34.03;16.88;;;9.00;99.90;;;;;;5036032;28;20490;-81
2024/03/30 02:41:58;;;;;;;36.33;17.70;;;9.10;99.90;;;;;;5017629;28;20833;-80
2024/03/30 02:44:24;;;;;;;50.80;16.30;;;9.10;99.90;;;;;;5017378;28;20379;-81
2024/03/30 02:46:50;;;;;;;37.20;17.85;;;9.20;99.90;;;;;;5035083;28;20406;-81
2024/03/30 02:49:15;;;;;;;46.47;18.52;;;9.60;99.90;;;;;;5034743;28;20875;-81
2024/03/30 02:51:41;;;;;;;37.47;18.53;;;9.40;99.90;;;;;;5036527;28;20386;-81
2024/03/30 02:54:07;;;;;;;27.10;18.33;;;8.00;99.90;;;;;;5021886;28;20390;-80
2024/03/30 02:56:32;;;;;;;30.20;19.03;;;9.90;99.90;;;;;;5042609;28;20377;-79
2024/03/30 02:58:59;;;;;;;30.10;19.20;;;9.00;99.90;;;;;;5034282;28;20406;-80
2024/03/30 03:01:25;;;;;;;32.72;19.88;;;;;;;;;;5034378;28;20498;-83
2024/03/30 03:03:51;;;;;;;37.75;18.83;;;9.10;99.90;;;;;;5034878;28;20754;-80
2024/03/30 03:06:17;;;;;;;33.25;20.02;;;9.30;99.90;;;;;;5034587;28;20402;-81
2024/03/30 03:08:42;;;;;;;36.50;21.23;;;10.00;99.90;;;;;;5035011;28;20453;-81
2024/03/30 03:11:08;;;;;;;30.50;18.10;;;9.40;99.90;;;;;;5037888;28;20383;-79
2024/03/30 03:13:33;;;;;;;40.33;18.37;;;9.70;99.90;;;;;;5037251;28;20793;-79
2024/03/30 03:16:05;;;;;;;34.20;18.63;;;9.70;99.90;;;;;;5036814;28;20756;-80
2024/03/30 03:18:31;;;;;;;29.85;19.02;;;9.30;99.90;;;;;;5035599;28;20391;-81
2024/03/30 03:20:56;;;;;;;32.70;18.13;;;10.10;99.90;;;;;;5016536;28;20391;-81
2024/03/30 03:23:24;;;;;;;33.20;18.75;;;9.30;99.90;;;;;;5015144;28;20514;-80
2024/03/30 03:25:51;;;;;;;30.75;17.23;;;9.30;99.90;;;;;;5015994;28;20411;-82
2024/03/30 03:28:16;;;;;;;29.23;17.50;;;9.50;99.90;;;;;;5034120;28;20387;-81
2024/03/30 03:30:42;;;;;;;31.87;17.87;;;9.40;99.90;;;;;;5033883;28;20754;-81
2024/03/30 03:33:08;;;;;;;32.83;16.23;;;;;;;;;;5016415;28;20398;-82
2024/03/30 03:35:34;;;;;;;32.13;15.65;;;9.50;99.90;;;;;;5033907;28;20887;-80
2024/03/30 03:37:59;;;;;;;31.43;15.57;;;9.20;99.90;;;;;;5034559;28;20391;-81
2024/03/30 03:40:25;;;;;;;32.50;16.80;;;9.40;99.90;;;;;;5034157;28;20394;-80
2024/03/30 03:42:51;;;;;;;31.37;16.77;;;9.30;99.90;;;;;;5033187;28;20391;-81
2024/03/30 03:45:16;;;;;;;27.95;15.25;;;9.30;99.90;;;;;;5015989;28;20523;-81
2024/03/30 03:47:42;;;;;;;29.50;14.90;;;9.30;99.90;;;;;;5032982;28;20430;-80
2024/03/30 03:50:07;;;;;;;25.35;15.65;;;9.90;99.90;;;;;;5033696;28;20876;-81
2024/03/30 03:52:33;;;;;;;28.53;15.40;;;9.90;99.90;;;;;;5040947;28;20381;-81
2024/03/30 03:54:58;;;;;;;28.63;15.30;;;9.70;99.90;;;;;;5034437;28;20517;-80
2024/03/30 03:57:24;;;;;;;29.02;14.35;;;9.80;99.90;;;;;;5043767;28;20371;-81
2024/03/30 03:59:50;;;;;;;26.92;13.95;;;9.40;99.90;;;;;;5053470;28;20403;-81
2024/03/30 04:02:16;;;;;;;32.92;14.30;;;9.20;99.90;;;;;;5051370;28;20425;-80
2024/03/30 04:04:42;;;;;;;30.40;13.70;;;;;;;;;;5036027;28;20395;-80
2024/03/30 04:07:08;;;;;;;29.67;15.13;;;;;;;;;;5033806;28;20463;-80
2024/03/30 04:09:34;;;;;;;22.77;13.38;;;9.80;99.90;;;;;;5016405;28;20839;-81
2024/03/30 04:11:59;;;;;;;22.97;13.60;;;9.40;99.90;;;;;;5034594;28;20395;-81
2024/03/30 04:14:25;;;;;;;21.23;13.40;;;;;;;;;;5016314;28;20411;-81
2024/03/30 04:16:51;;;;;;;16.75;12.50;;;7.50;99.90;;;;;;5033119;28;20874;-81
2024/03/30 04:19:19;;;;;;;17.07;11.60;;;;;;;;;;5033748;28;20964;-81
2024/03/30 04:21:45;;;;;;;20.40;12.75;;;9.30;99.90;;;;;;5033831;28;20798;-80
2024/03/30 04:24:12;;;;;;;19.80;12.70;;;9.30;99.90;;;;;;5032294;28;20387;-80
2024/03/30 04:26:39;;;;;;;20.60;11.90;;;9.20;99.90;;;;;;5032946;28;20407;-81
2024/03/30 04:29:04;;;;;;;20.85;12.98;;;9.50;99.90;;;;;;5033066;28;20429;-81
2024/03/30 04:31:30;;;;;;;18.95;12.40;;;9.40;99.90;;;;;;5033271;28;20407;-81
2024/03/30 04:33:56;;;;;;;17.15;12.43;;;8.70;99.90;;;;;;5032717;28;20831;-80
2024/03/30 04:36:21;;;;;;;17.63;12.63;;;9.40;99.90;;;;;;5033151;28;20883;-80
2024/03/30 04:38:47;;;;;;;15.87;11.47;;;8.90;99.90;;;;;;5013950;28;20426;-81
2024/03/30 04:41:13;;;;;;;18.13;12.70;;;9.10;99.90;;;;;;5033445;28;20433;-79
2024/03/30 04:43:38;;;;;;;15.40;11.87;;;9.50;99.90;;;;;;5014847;28;20398;-81
2024/03/30 04:46:06;;;;;;;13.85;10.93;;;8.80;99.90;;;;;;5031890;28;20458;-81
2024/03/30 04:48:32;;;;;;;15.90;11.20;;;;;;;;;;5031488;28;20386;-80
2024/03/30 04:50:59;;;;;;;15.63;11.32;;;8.70;99.90;;;;;;5014430;28;20403;-82
2024/03/30 04:53:32;;;;;;;13.10;10.63;;;8.90;99.90;;;;;;5018063;28;20395;-81
2024/03/30 04:56:00;;;;;;;13.30;10.30;;;9.30;99.90;;;;;;5032627;28;20379;-82
2024/03/30 04:58:28;;;;;;;12.20;9.00;;;9.40;99.90;;;;;;5033281;28;20790;-81
2024/03/30 05:00:58;;;;;;;11.52;8.50;;;8.70;99.90;;;;;;5015613;28;20922;-81
2024/03/30 05:03:24;;;;;;;9.25;7.32;;;;;;;;;;5032510;28;20482;-81
2024/03/30 05:05:50;;;;;;;8.25;7.20;;;9.40;99.90;;;;;;5032421;28;20442;-81
2024/03/30 05:08:15;;;;;;;9.40;7.13;;;9.10;99.90;;;;;;5039409;28;20387;-80
2024/03/30 05:10:42;;;;;;;10.37;6.70;;;8.90;99.90;;;;;;5037029;28;20448;-81
2024/03/30 05:13:08;;;;;;;7.40;6.40;;;9.30;99.90;;;;;;5032437;28;20376;-81
2024/03/30 05:15:41;;;;;;;7.68;5.63;;;9.20;99.90;;;;;;5032085;28;20418;-81
2024/03/30 05:18:11;;;;;;;7.90;5.32;;;9.10;99.90;;;;;;5032251;28;20383;-82
2024/03/30 05:20:50;;;;;;;8.23;5.65;;;9.20;99.90;;;;;;5032470;28;20417;-81
2024/03/30 05:23:21;;;;;;;8.20;5.75;;;9.40;99.90;;;;;;5013416;28;20490;-81
2024/03/30 05:25:47;;;;;;;8.23;4.85;;;9.20;99.90;;;;;;5032195;28;20425;-82
2024/03/30 05:28:15;;;;;;;6.80;5.10;;;9.40;99.90;;;;;;5033396;28;20383;-81
2024/03/30 05:30:41;;;;;;;7.88;4.50;;;9.80;99.90;;;;;;5032133;28;20386;-81
2024/03/30 05:33:08;;;;;;;4.60;4.10;;;9.40;99.90;;;;;;5035446;28;20478;-82
2024/03/30 05:35:35;;;;;;;7.80;4.80;;;9.60;99.90;;;;;;5033547;28;20387;-81
2024/03/30 05:38:00;;;;;;;6.32;5.10;;;9.90;99.90;;;;;;5013530;28;20434;-82
2024/03/30 05:40:26;;;;;;;7.95;6.38;;;9.40;99.90;;;;;;5032278;28;20402;-81
2024/03/30 05:42:51;;;;;;;10.85;6.18;;;9.40;99.90;;;;;;5032044;28;20452;-81
2024/03/30 05:45:18;;;;;;;10.00;7.70;;;9.20;99.90;;;;;;5013960;28;20411;-81
2024/03/30 05:47:43;;;;;;;12.25;8.68;;;9.70;99.90;;;;;;5022026;28;20445;-79
2024/03/30 05:50:09;;;;;;;12.35;8.85;;;9.10;99.90;;;;;;5043614;28;20391;-80
2024/03/30 05:52:34;;;;;;;12.83;8.80;;;9.40;99.90;;;;;;5043781;28;20395;-81
2024/03/30 05:55:02;;;;;;;14.53;10.17;;;9.10;99.90;;;;;;5018752;28;20474;-80
2024/03/30 05:57:28;;;;;;;19.05;11.95;;;10.00;99.90;;;;;;5036596;28;20391;-81
2024/03/30 05:59:53;;;;;;;21.13;13.70;;;8.30;99.90;;;;;;5019158;28;20444;-82
2024/03/30 06:02:19;;;;;;;16.20;11.50;;;9.20;99.90;;;;;;5038182;28;20862;-81
2024/03/30 06:04:44;;;;;;;19.98;12.73;;;9.30;99.90;;;;;;5036374;28;20414;-81
2024/03/30 06:07:10;;;;;;;16.50;11.80;;;9.60;99.90;;;;;;5018894;28;20473;-81
2024/03/30 06:09:36;;;;;;;19.73;12.07;;;8.60;99.90;;;;;;5018581;28;20464;-81
2024/03/30 06:12:03;;;;;;;22.85;13.07;;;9.10;99.90;;;;;;5036230;28;20446;-81
2024/03/30 06:14:30;;;;;;;23.08;13.77;;;9.20;99.90;;;;;;5036936;28;20390;-79
2024/03/30 06:16:56;;;;;;;20.75;13.77;;;9.80;99.90;;;;;;5018082;28;20937;-81
2024/03/30 06:19:21;;;;;;;23.67;14.10;;;9.80;99.90;;;;;;5035486;28;20391;-81
2024/03/30 06:21:47;;;;;;;25.52;13.50;;;9.20;99.90;;;;;;5036724;28;20498;-80
2024/03/30 06:24:13;;;;;;;25.52;13.77;;;;;;;;;;5033997;28;20398;-80
2024/03/30 06:26:39;;;;;;;24.65;13.07;;;;;;;;;;5019650;28;20406;-79
2024/03/30 06:29:05;;;;;;;20.00;13.40;;;;;;;;;;5018578;28;20472;-80
2024/03/30 06:31:31;;;;;;;23.73;13.27;;;9.80;99.90;;;;;;5036557;28;21313;-80
2024/03/30 06:33:56;;;;;;;25.07;12.90;;;9.80;99.90;;;;;;5040478;28;20387;-80
2024/03/30 06:36:22;;;;;;;23.50;13.03;;;9.70;99.90;;;;;;5036538;28;20454;-79
2024/03/30 06:38:47;;;;;;;20.92;12.23;;;9.30;99.90;;;;;;5043122;28;20461;-80
2024/03/30 06:43:56;;;;;;;26.45;13.05;;;9.40;99.90;;;;;;5041735;28;20905;-79
2024/03/30 06:46:22;;;;;;;23.27;13.60;;;9.50;99.90;;;;;;5022265;28;20502;-80
2024/03/30 06:48:48;;;;;;;24.00;12.67;;;9.10;99.90;;;;;;5038838;28;20462;-79
2024/03/30 06:51:13;;;;;;;25.90;14.10;;;9.80;99.90;;;;;;5039209;28;20387;-79
2024/03/30 06:53:39;;;;;;;22.38;13.65;;;9.30;99.90;;;;;;5036716;28;20403;-80
2024/03/30 06:56:05;;;;;;;20.70;12.18;;;10.00;99.90;;;;;;5024065;28;20387;-80
2024/03/30 06:58:31;;;;;;;19.35;12.35;;;;;;;;;;5037846;28;20405;-80
2024/03/30 07:00:56;;;;;;;23.60;13.57;;;9.60;99.90;;;;;;5037009;28;20383;-79
2024/03/30 07:03:22;;;;;;;23.60;14.10;;;;;;;;;;5039064;28;20392;-81
2024/03/30 07:05:48;;;;;;;20.40;12.57;;;9.30;99.90;;;;;;5019255;28;20464;-81
2024/03/30 07:08:13;;;;;;;20.27;12.77;;;9.50;99.90;;;;;;5035683;28;20391;-79
2024/03/30 07:10:39;;;;;;;20.03;12.77;;;10.20;99.90;;;;;;5034782;28;20928;-80
2024/03/30 07:13:04;;;;;;;21.10;13.47;;;9.60;99.90;;;;;;5017510;28;20391;-80
2024/03/30 07:15:30;;;;;;;17.17;11.63;;;10.20;99.90;;;;;;5017117;28;20421;-81
2024/03/30 07:17:57;;;;;;;16.58;11.52;;;;;;;;;;5036405;28;20775;-79
2024/03/30 07:20:23;;;;;;;18.67;11.80;;;;;;;;;;5018890;28;20391;-81
2024/03/30 07:22:49;;;;;;;14.93;10.45;;;9.80;99.90;;;;;;5035718;28;20395;-80
2024/03/30 07:25:14;;;;;;;14.98;10.35;;;10.20;99.90;;;;;;5017834;28;20453;-80
2024/03/30 07:27:40;;;;;;;14.87;9.50;;;;;;;;;;5018579;28;20419;-82
2024/03/30 07:30:07;;;;;;;15.82;9.88;;;9.30;99.90;;;;;;5042978;28;20786;-82
2024/03/30 07:32:35;;;;;;;16.05;10.48;;;9.80;99.90;;;;;;5024596;28;20395;-79
2024/03/30 07:35:01;;;;;;;13.80;9.00;;;;;;;;;;5047191;28;20383;-80
2024/03/30 07:37:26;;;;;;;15.27;9.60;;;9.70;99.90;;;;;;5017314;28;20459;-81
2024/03/30 07:39:52;;;;;;;13.17;9.00;;;9.30;99.90;;;;;;5034921;28;20406;-79
2024/03/30 07:42:17;;;;;;;15.80;9.50;;;10.00;99.90;;;;;;5018291;28;20391;-80
2024/03/30 07:44:43;;;;;;;14.20;9.82;;;9.60;99.90;;;;;;5017351;28;20371;-80
2024/03/30 07:47:08;;;;;;;13.27;8.25;;;9.90;99.90;;;;;;5034315;28;20442;-79
2024/03/30 07:49:34;;;;;;;14.90;9.57;;;9.70;99.90;;;;;;5034833;28;20466;-79
2024/03/30 07:52:01;;;;;;;16.00;10.13;;;9.20;99.90;;;;;;5035549;28;20390;-79
2024/03/30 07:54:27;;;;;;;15.80;10.40;;;9.40;99.90;;;;;;5035683;28;20402;-79
2024/03/30 07:57:00;;;;;;;16.70;10.32;;;9.40;99.90;;;;;;5034944;28;20402;-80
2024/03/30 07:59:26;;;;;;;17.73;10.43;;;9.60;99.90;;;;;;5017519;28;20406;-82
2024/03/30 08:01:52;;;;;;;16.85;9.80;;;9.50;99.90;;;;;;5034051;28;20387;-81
2024/03/30 08:04:19;;;;;;;16.80;9.82;;;8.90;99.90;;;;;;5018608;28;20395;-79
2024/03/30 08:06:47;;;;;;;14.10;9.05;;;10.10;99.90;;;;;;5037067;28;20419;-79
2024/03/30 08:09:13;;;;;;;15.13;8.82;;;10.40;99.90;;;;;;5038104;28;20751;-80
2024/03/30 08:11:39;;;;;;;12.40;9.07;;;9.70;99.90;;;;;;5035397;28;20435;-81
2024/03/30 08:14:05;;;;;;;13.83;8.97;;;10.20;99.90;;;;;;5033700;28;20427;-80
2024/03/30 08:16:31;;;;;;;11.93;8.67;;;;;;;;;;5034347;28;20844;-79
2024/03/30 08:18:58;;;;;;;12.82;8.73;;;10.20;99.90;;;;;;5034552;28;20385;-80
2024/03/30 08:21:24;;;;;;;11.68;8.43;;;9.90;99.90;;;;;;5035085;28;20391;-79
2024/03/30 08:23:50;;;;;;;11.90;8.23;;;10.50;99.90;;;;;;5017101;28;20402;-80
2024/03/30 08:26:16;;;;;;;10.93;7.70;;;10.60;99.90;;;;;;5036090;28;20439;-81
2024/03/30 08:28:41;;;;;;;10.90;8.30;;;10.30;99.90;;;;;;5019137;28;20399;-80
2024/03/30 08:31:07;;;;;;;9.77;8.27;;;10.60;99.90;;;;;;5053576;28;20367;-78
2024/03/30 08:33:32;;;;;;;11.05;7.57;;;10.90;99.90;;;;;;5055183;28;20403;-79
2024/03/30 08:35:58;;;;;;;12.00;8.50;;;10.20;99.90;;;;;;5030094;28;20384;-80
2024/03/30 08:38:23;;;;;;;11.40;8.20;;;10.90;99.90;;;;;;5020583;28;20470;-81
2024/03/30 08:40:49;;;;;;;8.00;6.88;;;10.30;99.90;;;;;;5035703;28;20452;-81
2024/03/30 08:43:15;;;;;;;10.35;7.78;;;11.00;99.90;;;;;;5018893;28;20421;-80
2024/03/30 08:45:41;;;;;;;9.05;7.28;;;11.00;99.90;;;;;;5017745;28;20447;-81
2024/03/30 08:48:11;;;;;;;10.60;7.40;;;11.00;99.90;;;;;;5016754;28;20402;-79
2024/03/30 08:50:37;;;;;;;10.13;7.53;;;11.00;99.90;;;;;;5034683;28;20482;-80
2024/03/30 08:53:02;;;;;;;7.90;6.90;;;11.00;99.90;;;;;;5015424;28;20464;-81
2024/03/30 08:55:28;;;;;;;8.75;7.18;;;11.30;99.90;;;;;;5033366;28;20442;-80
2024/03/30 08:57:53;;;;;;;7.70;6.60;;;10.80;99.90;;;;;;5016427;28;20402;-79
2024/03/30 09:00:19;;;;;;;8.67;6.87;;;11.40;99.90;;;;;;5033612;28;20418;-80
2024/03/30 09:02:45;;;;;;;7.00;6.30;;;11.00;99.90;;;;;;5034167;28;20425;-80
2024/03/30 09:05:10;;;;;;;6.93;6.10;;;11.50;99.90;;;;;;5015809;28;20939;-79
2024/03/30 09:07:35;;;;;;;7.32;5.70;;;11.50;99.90;;;;;;5033270;28;20486;-80
2024/03/30 09:10:02;;;;;;;8.93;6.30;;;;;;;;;;5017739;28;20399;-80
2024/03/30 09:12:27;;;;;;;7.90;6.35;;;11.60;99.90;;;;;;5016612;28;20426;-78
2024/03/30 09:14:53;;;;;;;7.60;6.50;;;11.30;99.90;;;;;;5035867;28;20387;-80
2024/03/30 09:17:18;;;;;;;8.43;6.50;;;11.70;99.90;;;;;;5035505;28;20394;-80
2024/03/30 09:19:44;;;;;;;8.55;6.85;;;12.00;99.90;;;;;;5034738;28;20452;-78
2024/03/30 09:22:09;;;;;;;8.73;6.70;;;11.50;99.90;;;;;;5036083;28;20879;-80
2024/03/30 09:24:35;;;;;;;8.70;6.60;;;11.20;99.90;;;;;;5017892;28;20395;-79
2024/03/30 09:27:00;;;;;;;8.88;6.68;;;11.90;99.90;;;;;;5035615;28;20429;-79
2024/03/30 09:29:26;;;;;;;8.90;6.90;;;11.70;99.90;;;;;;5036970;28;20390;-79
2024/03/30 09:31:51;;;;;;;9.53;7.40;;;11.50;99.90;;;;;;5035907;28;20933;-80
2024/03/30 09:34:17;;;;;;;7.80;6.93;;;11.80;99.90;;;;;;5036902;28;20453;-81
2024/03/30 09:36:42;;;;;;;8.40;6.60;;;11.40;99.90;;;;;;5034493;28;20497;-79
2024/03/30 09:39:08;;;;;;;8.40;6.90;;;11.70;99.90;;;;;;5035667;28;20399;-79
2024/03/30 09:41:48;;;;;;;7.15;6.45;;;11.20;99.90;;;;;;5016974;28;20395;-81
2024/03/30 09:44:14;;;;;;;10.50;6.90;;;12.40;99.90;;;;;;5036198;28;20387;-80
2024/03/30 09:46:41;;;;;;;8.27;6.27;;;11.50;99.90;;;;;;5016030;28;20623;-81
2024/03/30 09:49:08;;;;;;;8.43;6.80;;;11.70;99.90;;;;;;5015680;28;20388;-80
2024/03/30 09:51:35;;;;;;;7.40;6.60;;;11.90;99.90;;;;;;5033013;28;20387;-81
2024/03/30 09:54:02;;;;;;;9.10;7.18;;;12.20;99.90;;;;;;5013989;28;20391;-80
2024/03/30 09:56:29;;;;;;;8.57;6.60;;;14.90;99.90;;;;;;5033029;28;20387;-80
2024/03/30 09:58:58;;;;;;;7.03;6.30;;;11.80;99.90;;;;;;5016485;28;20387;-80
2024/03/30 10:01:24;;;;;;;7.53;6.50;;;12.00;99.90;;;;;;5033403;28;20456;-81
2024/03/30 10:03:49;;;;;;;12.13;7.53;;;12.20;99.90;;;;;;5021268;28;20775;-80
2024/03/30 10:06:22;;;;;;;8.30;7.07;;;11.70;99.90;;;;;;5016917;28;20960;-80
2024/03/30 10:08:51;;;;;;;7.70;6.73;;;10.80;99.90;;;;;;5031364;28;20386;-80
2024/03/30 10:11:19;;;;;;;7.20;6.43;;;12.70;99.90;;;;;;5015132;28;20387;-78
2024/03/30 10:14:01;;;;;;;8.57;7.22;;;12.70;99.90;;;;;;5019820;28;20389;-79
2024/03/30 10:16:26;;;;;;;9.13;7.57;;;12.10;99.90;;;;;;5034733;28;20792;-78
2024/03/30 10:18:53;;;;;;;8.23;6.87;;;12.80;99.90;;;;;;5020984;28;20407;-79
2024/03/30 10:21:19;;;;;;;9.00;6.50;;;13.00;99.90;;;;;;5026269;28;20402;-79
2024/03/30 10:23:46;;;;;;;8.50;6.77;;;12.80;99.90;;;;;;5040633;28;20595;-77
2024/03/30 10:26:17;;;;;;;7.97;7.18;;;;;;;;;;5036249;28;20427;-78
2024/03/30 10:28:43;;;;;;;9.07;8.00;;;;;;;;;;5034076;28;20472;-80
2024/03/30 10:31:09;;;;;;;7.32;6.63;;;12.40;99.90;;;;;;5025289;28;20379;-80
2024/03/30 10:33:35;;;;;;;9.95;7.03;;;13.00;99.90;;;;;;5022375;28;20896;-79
2024/03/30 10:36:02;;;;;;;8.85;7.70;;;12.90;99.90;;;;;;5038584;28;20411;-82
2024/03/30 10:38:28;;;;;;;7.78;6.50;;;14.00;99.90;;;;;;5049241;28;20391;-78
2024/03/30 10:40:57;;;;;;;9.90;7.28;;;13.40;99.90;;;;;;5037463;28;20405;-79
2024/03/30 10:43:23;;;;;;;8.85;6.80;;;13.20;99.90;;;;;;5036107;28;20398;-80
2024/03/30 10:45:49;;;;;;;7.90;7.10;;;12.80;99.90;;;;;;5035990;28;20426;-80
2024/03/30 10:48:15;;;;;;;10.40;8.00;;;13.20;99.90;;;;;;5036015;28;20901;-81
2024/03/30 10:50:41;;;;;;;9.30;8.30;;;13.40;99.90;;;;;;5035267;28;20403;-81
2024/03/30 10:53:06;;;;;;;8.75;6.93;;;12.30;99.90;;;;;;5018520;28;20405;-80
2024/03/30 10:55:39;;;;;;;8.17;6.90;;;13.00;99.90;;;;;;5021111;28;20882;-81
2024/03/30 10:58:05;;;;;;;7.97;7.00;;;13.00;99.90;;;;;;5054989;28;20817;-80
2024/03/30 11:00:31;;;;;;;8.77;7.17;;;13.70;99.90;;;;;;5055107;28;20555;-80
2024/03/30 11:03:01;;;;;;;7.88;7.07;;;13.50;99.90;;;;;;5035207;28;20409;-79
2024/03/30 11:05:28;;;;;;;9.15;8.10;;;12.80;99.90;;;;;;5035099;28;20764;-80
2024/03/30 11:07:55;;;;;;;9.20;7.13;;;13.60;99.90;;;;;;5053789;28;20389;-80
2024/03/30 11:10:22;;;;;;;8.82;7.07;;;13.00;99.90;;;;;;5035773;28;20456;-80
2024/03/30 11:12:47;;;;;;;8.40;7.60;;;12.40;99.90;;;;;;5053585;28;20472;-81
2024/03/30 11:15:13;;;;;;;8.60;7.70;;;12.80;99.90;;;;;;5035922;28;20507;-80
2024/03/30 11:17:54;;;;;;;9.57;7.57;;;12.90;99.90;;;;;;5055585;28;20413;-81
2024/03/30 11:20:22;;;;;;;10.50;7.82;;;13.10;99.90;;;;;;5055895;28;20885;-81
2024/03/30 11:22:54;;;;;;;8.70;7.20;;;12.90;99.90;;;;;;5055572;28;20444;-81
2024/03/30 11:25:27;;;;;;;8.80;7.87;;;13.50;99.90;;;;;;5020848;28;20411;-83
2024/03/30 11:28:13;;;;;;;8.67;7.60;;;13.40;99.90;;;;;;5018305;28;20391;-80
2024/03/30 11:30:51;;;;;;;9.23;7.53;;;13.00;99.90;;;;;;5036491;28;20747;-82
2024/03/30 11:33:21;;;;;;;10.30;7.85;;;13.00;99.90;;;;;;5034921;28;20794;-80
2024/03/30 11:35:52;;;;;;;10.60;7.28;;;12.70;99.90;;;;;;5035130;28;20928;-79
2024/03/30 11:38:19;;;;;;;10.23;8.02;;;13.50;99.90;;;;;;5018729;28;20430;-82
2024/03/30 11:41:05;;;;;;;8.43;7.03;;;12.70;99.90;;;;;;5036620;28;20482;-83
2024/03/30 11:43:33;;;;;;;8.00;6.53;;;12.80;99.90;;;;;;5051380;28;20395;-82
2024/03/30 11:45:59;;;;;;;8.50;6.85;;;13.20;99.90;;;;;;5035603;28;20398;-83
2024/03/30 11:48:26;;;;;;;9.17;7.60;;;;;;;;;;5036551;28;20895;-81
2024/03/30 11:50:51;;;;;;;9.32;7.72;;;12.60;99.90;;;;;;5018428;28;20395;-81
2024/03/30 11:53:21;;;;;;;10.37;7.70;;;13.00;99.90;;;;;;5036683;28;20383;-82
2024/03/30 11:55:51;;;;;;;8.05;7.25;;;13.20;99.90;;;;;;5037043;28;20542;-82
2024/03/30 11:58:21;;;;;;;8.40;6.55;;;12.50;99.90;;;;;;5017737;28;20387;-79
2024/03/30 12:00:54;;;;;;;9.88;7.50;;;12.70;99.90;;;;;;5035458;28;20463;-80
2024/03/30 12:03:20;;;;;;;8.63;6.53;;;12.50;99.90;;;;;;5016663;28;20470;-80
2024/03/30 12:05:52;;;;;;;8.00;7.00;;;13.30;99.90;;;;;;5039439;28;20488;-81
2024/03/30 12:08:21;;;;;;;7.32;6.53;;;13.20;99.90;;;;;;5034819;28;20760;-80
2024/03/30 12:10:54;;;;;;;8.68;6.82;;;13.50;99.90;;;;;;5017316;28;20375;-81
2024/03/30 12:13:22;;;;;;;10.65;7.07;;;13.00;99.90;;;;;;5035711;28;20406;-82
2024/03/30 12:15:47;;;;;;;9.10;6.78;;;12.80;99.90;;;;;;5035988;28;20413;-81
2024/03/30 12:18:14;;;;;;;6.80;6.10;;;13.30;99.90;;;;;;5018167;28;20755;-81
2024/03/30 12:20:41;;;;;;;6.70;5.70;;;13.80;99.90;;;;;;5018727;28;20487;-81
2024/03/30 12:23:09;;;;;;;6.88;5.90;;;13.90;99.90;;;;;;5035773;28;20387;-82
2024/03/30 12:25:35;;;;;;;7.70;6.27;;;14.20;99.90;;;;;;5024645;28;20403;-83
2024/03/30 12:28:00;;;;;;;6.28;5.68;;;14.40;99.90;;;;;;5038710;28;20450;-83
2024/03/30 12:30:27;;;;;;;7.03;5.70;;;14.90;99.90;;;;;;5036232;28;20461;-82
2024/03/30 12:32:53;;;;;;;6.93;6.07;;;14.00;99.90;;;;;;5019676;28;20410;-80
2024/03/30 12:35:19;;;;;;;6.45;5.85;;;15.40;99.90;;;;;;5035301;28;20389;-80
2024/03/30 12:37:44;;;;;;;6.32;5.30;;;16.40;99.90;;;;;;5036151;28;20382;-80
2024/03/30 12:40:11;;;;;;;7.70;5.72;;;14.30;99.90;;;;;;5037281;28;20433;-81
2024/03/30 12:42:36;;;;;;;6.30;5.60;;;14.70;99.90;;;;;;5044384;28;20383;-81
2024/03/30 12:45:02;;;;;;;7.10;5.90;;;14.90;99.90;;;;;;5027770;28;20474;-82
2024/03/30 12:47:27;;;;;;;6.83;5.63;;;14.90;99.90;;;;;;5023392;28;20395;-81
2024/03/30 12:49:53;;;;;;;5.80;5.20;;;15.50;99.90;;;;;;5039780;28;20477;-79